sensor_id;sensor_type;location;lat;lon;timestamp;pressure;altitude;pressure_sealevel;temperature;humidity
30302;BME280;17111;52.130;5.028;2023-07-08T00:00:27;101875.94;;;25.92;38.78
30302;BME280;17111;52.130;5.028;2023-07-08T00:02:53;101867.78;;;25.92;38.90
30302;BME280;17111;52.130;5.028;2023-07-08T00:05:21;101862.34;;;25.92;38.84
30302;BME280;17111;52.130;5.028;2023-07-08T00:07:50;101856.09;;;25.92;38.71
30302;BME280;17111;52.130;5.028;2023-07-08T00:10:20;101853.56;;;25.90;38.81
30302;BME280;17111;52.130;5.028;2023-07-08T00:12:52;101854.41;;;25.91;38.90
30302;BME280;17111;52.130;5.028;2023-07-08T00:15:25;101843.72;;;25.89;39.08
30302;BME280;17111;52.130;5.028;2023-07-08T00:17:52;101830.16;;;25.89;38.70
30302;BME280;17111;52.130;5.028;2023-07-08T00:22:57;101834.91;;;25.87;38.80
30302;BME280;17111;52.130;5.028;2023-07-08T00:25:23;101832.38;;;25.86;39.03
30302;BME280;17111;52.130;5.028;2023-07-08T00:27:50;101835.25;;;25.84;38.85
30302;BME280;17111;52.130;5.028;2023-07-08T00:30:25;101837.13;;;25.83;39.25
30302;BME280;17111;52.130;5.028;2023-07-08T00:32:53;101832.75;;;25.82;39.11
30302;BME280;17111;52.130;5.028;2023-07-08T00:35:31;101825.63;;;25.81;39.07
30302;BME280;17111;52.130;5.028;2023-07-08T00:37:58;101828.34;;;25.81;39.02
30302;BME280;17111;52.130;5.028;2023-07-08T00:40:29;101825.78;;;25.80;39.20
30302;BME280;17111;52.130;5.028;2023-07-08T00:42:59;101823.91;;;25.80;39.21
30302;BME280;17111;52.130;5.028;2023-07-08T00:47:55;101825.97;;;25.78;39.08
30302;BME280;17111;52.130;5.028;2023-07-08T00:50:22;101825.28;;;25.76;39.02
30302;BME280;17111;52.130;5.028;2023-07-08T00:52:49;101824.44;;;25.76;39.42
30302;BME280;17111;52.130;5.028;2023-07-08T00:55:15;101824.44;;;25.76;39.01
30302;BME280;17111;52.130;5.028;2023-07-08T00:57:44;101820.03;;;25.75;39.46
30302;BME280;17111;52.130;5.028;2023-07-08T01:00:14;101819.19;;;25.74;39.16
30302;BME280;17111;52.130;5.028;2023-07-08T01:02:46;101816.47;;;25.74;39.39
30302;BME280;17111;52.130;5.028;2023-07-08T01:05:22;101807.66;;;25.72;39.01
30302;BME280;17111;52.130;5.028;2023-07-08T01:07:56;101804.94;;;25.72;39.12
30302;BME280;17111;52.130;5.028;2023-07-08T01:10:32;101812.25;;;25.72;39.32
30302;BME280;17111;52.130;5.028;2023-07-08T01:13:02;101800.53;;;25.71;39.45
30302;BME280;17111;52.130;5.028;2023-07-08T01:15:40;101807.84;;;25.71;39.58
30302;BME280;17111;52.130;5.028;2023-07-08T01:18:09;101808.88;;;25.70;39.42
30302;BME280;17111;52.130;5.028;2023-07-08T01:20:37;101810.75;;;25.69;39.36
30302;BME280;17111;52.130;5.028;2023-07-08T01:23:05;101810.91;;;25.68;39.36
30302;BME280;17111;52.130;5.028;2023-07-08T01:25:32;101808.19;;;25.68;39.71
30302;BME280;17111;52.130;5.028;2023-07-08T01:28:00;101807.34;;;25.67;39.41
30302;BME280;17111;52.130;5.028;2023-07-08T01:30:29;101800.25;;;25.66;39.75
30302;BME280;17111;52.130;5.028;2023-07-08T01:33:00;101802.13;;;25.66;39.41
30302;BME280;17111;52.130;5.028;2023-07-08T01:35:29;101794.97;;;25.65;39.57
30302;BME280;17111;52.130;5.028;2023-07-08T01:38:03;101800.59;;;25.63;39.72
30302;BME280;17111;52.130;5.028;2023-07-08T01:40:34;101797.03;;;25.63;39.59
30302;BME280;17111;52.130;5.028;2023-07-08T01:43:02;101797.03;;;25.63;39.95
30302;BME280;17111;52.130;5.028;2023-07-08T01:45:39;101790.94;;;25.60;39.67
30302;BME280;17111;52.130;5.028;2023-07-08T01:48:11;101796.38;;;25.60;39.92
30302;BME280;17111;52.130;5.028;2023-07-08T01:50:42;101794.69;;;25.59;39.45
30302;BME280;17111;52.130;5.028;2023-07-08T01:53:15;101787.56;;;25.58;39.74
30302;BME280;17111;52.130;5.028;2023-07-08T01:55:42;101784.84;;;25.58;39.83
30302;BME280;17111;52.130;5.028;2023-07-08T01:58:08;101783.16;;;25.57;40.00
30302;BME280;17111;52.130;5.028;2023-07-08T02:00:35;101780.63;;;25.56;39.80
30302;BME280;17111;52.130;5.028;2023-07-08T02:03:01;101776.22;;;25.55;39.91
30302;BME280;17111;52.130;5.028;2023-07-08T02:05:28;101771.00;;;25.53;39.81
30302;BME280;17111;52.130;5.028;2023-07-08T02:07:55;101775.38;;;25.54;39.69
30302;BME280;17111;52.130;5.028;2023-07-08T02:10:22;101772.00;;;25.52;39.61
30302;BME280;17111;52.130;5.028;2023-07-08T02:12:49;101770.31;;;25.51;40.05
30302;BME280;17111;52.130;5.028;2023-07-08T02:15:16;101764.03;;;25.51;40.24
30302;BME280;17111;52.130;5.028;2023-07-08T02:17:42;101763.19;;;25.50;40.11
30302;BME280;17111;52.130;5.028;2023-07-08T02:20:09;101765.91;;;25.50;39.98
30302;BME280;17111;52.130;5.028;2023-07-08T02:22:36;101756.94;;;25.50;40.07
30302;BME280;17111;52.130;5.028;2023-07-08T02:25:03;101759.81;;;25.48;40.27
30302;BME280;17111;52.130;5.028;2023-07-08T02:27:30;101757.09;;;25.48;39.90
30302;BME280;17111;52.130;5.028;2023-07-08T02:29:56;101755.59;;;25.46;40.17
30302;BME280;17111;52.130;5.028;2023-07-08T02:32:23;101756.44;;;25.46;39.96
30302;BME280;17111;52.130;5.028;2023-07-08T02:34:49;101747.47;;;25.46;40.14
30302;BME280;17111;52.130;5.028;2023-07-08T02:37:18;101742.19;;;25.44;40.24
30302;BME280;17111;52.130;5.028;2023-07-08T02:39:45;101748.66;;;25.43;40.29
30302;BME280;17111;52.130;5.028;2023-07-08T02:42:11;101744.25;;;25.42;40.16
30302;BME280;17111;52.130;5.028;2023-07-08T02:44:38;101746.13;;;25.42;40.19
30302;BME280;17111;52.130;5.028;2023-07-08T02:47:04;101737.16;;;25.41;40.09
30302;BME280;17111;52.130;5.028;2023-07-08T02:49:31;101738.16;;;25.40;40.37
30302;BME280;17111;52.130;5.028;2023-07-08T02:51:58;101728.31;;;25.39;40.51
30302;BME280;17111;52.130;5.028;2023-07-08T02:54:24;101731.03;;;25.39;40.26
30302;BME280;17111;52.130;5.028;2023-07-08T02:56:51;101731.22;;;25.38;40.53
30302;BME280;17111;52.130;5.028;2023-07-08T02:59:17;101733.94;;;25.38;40.61
30302;BME280;17111;52.130;5.028;2023-07-08T03:01:44;101733.94;;;25.38;40.77
30302;BME280;17111;52.130;5.028;2023-07-08T03:04:13;101736.81;;;25.36;40.62
30302;BME280;17111;52.130;5.028;2023-07-08T03:06:41;101727.84;;;25.35;40.32
30302;BME280;17111;52.130;5.028;2023-07-08T03:09:08;101727.00;;;25.35;40.65
30302;BME280;17111;52.130;5.028;2023-07-08T03:11:35;101729.91;;;25.33;40.61
30302;BME280;17111;52.130;5.028;2023-07-08T03:14:02;101736.34;;;25.32;40.92
30302;BME280;17111;52.130;5.028;2023-07-08T03:16:29;101735.50;;;25.32;40.33
30302;BME280;17111;52.130;5.028;2023-07-08T03:18:56;101739.91;;;25.33;40.48
30302;BME280;17111;52.130;5.028;2023-07-08T03:21:23;101740.91;;;25.32;40.43
30302;BME280;17111;52.130;5.028;2023-07-08T03:23:50;101741.97;;;25.31;40.56
30302;BME280;17111;52.130;5.028;2023-07-08T03:26:20;101743.00;;;25.30;40.55
30302;BME280;17111;52.130;5.028;2023-07-08T03:28:48;101744.84;;;25.29;40.67
30302;BME280;17111;52.130;5.028;2023-07-08T03:31:14;101747.56;;;25.29;40.49
30302;BME280;17111;52.130;5.028;2023-07-08T03:33:41;101737.72;;;25.28;40.71
30302;BME280;17111;52.130;5.028;2023-07-08T03:36:14;101731.66;;;25.26;40.80
30302;BME280;17111;52.130;5.028;2023-07-08T03:38:59;101734.16;;;25.28;40.66
30302;BME280;17111;52.130;5.028;2023-07-08T03:41:27;101737.91;;;25.27;40.55
30302;BME280;17111;52.130;5.028;2023-07-08T03:43:54;101735.38;;;25.25;40.48
30302;BME280;17111;52.130;5.028;2023-07-08T03:46:21;101731.84;;;25.25;41.05
30302;BME280;17111;52.130;5.028;2023-07-08T03:48:48;101738.25;;;25.24;41.06
30302;BME280;17111;52.130;5.028;2023-07-08T03:51:23;101737.44;;;25.23;41.53
30302;BME280;17111;52.130;5.028;2023-07-08T03:53:51;101738.25;;;25.24;41.23
30302;BME280;17111;52.130;5.028;2023-07-08T03:56:18;101744.72;;;25.23;41.28
30302;BME280;17111;52.130;5.028;2023-07-08T03:58:45;101742.00;;;25.23;40.87
30302;BME280;17111;52.130;5.028;2023-07-08T04:01:18;101738.81;;;25.19;40.96
30302;BME280;17111;52.130;5.028;2023-07-08T04:03:47;101741.38;;;25.21;41.08
30302;BME280;17111;52.130;5.028;2023-07-08T04:06:14;101746.78;;;25.21;41.32
30302;BME280;17111;52.130;5.028;2023-07-08T04:08:40;101750.50;;;25.20;41.41
30302;BME280;17111;52.130;5.028;2023-07-08T04:11:09;101743.41;;;25.19;40.90
30302;BME280;17111;52.130;5.028;2023-07-08T04:13:38;101750.88;;;25.17;41.17
30302;BME280;17111;52.130;5.028;2023-07-08T04:16:07;101739.00;;;25.18;40.91
30302;BME280;17111;52.130;5.028;2023-07-08T04:18:36;101749.00;;;25.17;41.43
30302;BME280;17111;52.130;5.028;2023-07-08T04:21:03;101746.47;;;25.16;41.10
30302;BME280;17111;52.130;5.028;2023-07-08T04:23:32;101745.47;;;25.17;41.05
30302;BME280;17111;52.130;5.028;2023-07-08T04:25:59;101752.72;;;25.16;41.31
30302;BME280;17111;52.130;5.028;2023-07-08T04:28:26;101747.50;;;25.15;41.08
30302;BME280;17111;52.130;5.028;2023-07-08T04:30:53;101750.19;;;25.15;41.19
30302;BME280;17111;52.130;5.028;2023-07-08T04:33:19;101754.78;;;25.14;41.51
30302;BME280;17111;52.130;5.028;2023-07-08T04:35:46;101751.03;;;25.15;40.98
30302;BME280;17111;52.130;5.028;2023-07-08T04:38:19;101749.38;;;25.14;41.41
30302;BME280;17111;52.130;5.028;2023-07-08T04:40:48;101742.06;;;25.15;41.40
30302;BME280;17111;52.130;5.028;2023-07-08T04:43:15;101753.09;;;25.13;41.48
30302;BME280;17111;52.130;5.028;2023-07-08T04:45:44;101751.88;;;25.16;41.46
30302;BME280;17111;52.130;5.028;2023-07-08T04:48:13;101751.03;;;25.15;41.18
30302;BME280;17111;52.130;5.028;2023-07-08T04:50:46;101740.03;;;25.17;41.46
30302;BME280;17111;52.130;5.028;2023-07-08T04:53:13;101739.84;;;25.18;41.13
30302;BME280;17111;52.130;5.028;2023-07-08T04:55:51;101743.41;;;25.19;41.43
30302;BME280;17111;52.130;5.028;2023-07-08T04:58:19;101742.38;;;25.20;41.30
30302;BME280;17111;52.130;5.028;2023-07-08T05:00:46;101740.50;;;25.20;41.46
30302;BME280;17111;52.130;5.028;2023-07-08T05:03:13;101739.50;;;25.21;41.48
30302;BME280;17111;52.130;5.028;2023-07-08T05:05:40;101740.31;;;25.22;41.46
30302;BME280;17111;52.130;5.028;2023-07-08T05:08:08;101748.28;;;25.23;41.28
30302;BME280;17111;52.130;5.028;2023-07-08T05:10:34;101738.25;;;25.24;41.16
30302;BME280;17111;52.130;5.028;2023-07-08T05:13:01;101740.81;;;25.25;41.25
30302;BME280;17111;52.130;5.028;2023-07-08T05:15:28;101747.94;;;25.26;40.97
30302;BME280;17111;52.130;5.028;2023-07-08T05:17:54;101742.31;;;25.28;41.08
30302;BME280;17111;52.130;5.028;2023-07-08T05:20:21;101739.44;;;25.29;41.14
30302;BME280;17111;52.130;5.028;2023-07-08T05:22:48;101750.09;;;25.31;41.52
30302;BME280;17111;52.130;5.028;2023-07-08T05:25:15;101740.91;;;25.32;41.12
30302;BME280;17111;52.130;5.028;2023-07-08T05:27:42;101743.47;;;25.33;41.50
30302;BME280;17111;52.130;5.028;2023-07-08T05:30:13;101743.47;;;25.33;41.39
30302;BME280;17111;52.130;5.028;2023-07-08T05:32:40;101739.72;;;25.34;41.52
30302;BME280;17111;52.130;5.028;2023-07-08T05:35:07;101743.09;;;25.36;41.43
30302;BME280;17111;52.130;5.028;2023-07-08T05:37:36;101746.47;;;25.39;41.11
30302;BME280;17111;52.130;5.028;2023-07-08T05:40:03;101746.47;;;25.39;41.22
30302;BME280;17111;52.130;5.028;2023-07-08T05:42:31;101750.03;;;25.39;41.51
30302;BME280;17111;52.130;5.028;2023-07-08T05:44:58;101749.84;;;25.41;41.67
30302;BME280;17111;52.130;5.028;2023-07-08T05:47:24;101744.41;;;25.41;41.10
30302;BME280;17111;52.130;5.028;2023-07-08T05:49:51;101744.25;;;25.42;41.14
30302;BME280;17111;52.130;5.028;2023-07-08T05:52:17;101735.06;;;25.43;41.44
30302;BME280;17111;52.130;5.028;2023-07-08T05:54:44;101734.03;;;25.44;41.39
30302;BME280;17111;52.130;5.028;2023-07-08T05:57:11;101735.06;;;25.43;41.30
30302;BME280;17111;52.130;5.028;2023-07-08T05:59:38;101734.88;;;25.45;41.33
30302;BME280;17111;52.130;5.028;2023-07-08T06:02:11;101733.03;;;25.45;41.81
30302;BME280;17111;52.130;5.028;2023-07-08T06:04:39;101736.41;;;25.47;41.83
30302;BME280;17111;52.130;5.028;2023-07-08T06:07:06;101739.13;;;25.47;41.72
30302;BME280;17111;52.130;5.028;2023-07-08T06:09:34;101740.81;;;25.48;41.68
30302;BME280;17111;52.130;5.028;2023-07-08T06:12:00;101745.22;;;25.49;41.64
30302;BME280;17111;52.130;5.028;2023-07-08T06:14:28;101747.09;;;25.49;41.88
30302;BME280;17111;52.130;5.028;2023-07-08T06:16:54;101745.22;;;25.49;42.15
30302;BME280;17111;52.130;5.028;2023-07-08T06:19:21;101746.06;;;25.50;42.31
30302;BME280;17111;52.130;5.028;2023-07-08T06:21:48;101750.47;;;25.51;42.37
30302;BME280;17111;52.130;5.028;2023-07-08T06:24:15;101754.03;;;25.51;42.28
30302;BME280;17111;52.130;5.028;2023-07-08T06:26:42;101756.56;;;25.53;42.29
30302;BME280;17111;52.130;5.028;2023-07-08T06:29:08;101754.84;;;25.52;42.07
30302;BME280;17111;52.130;5.028;2023-07-08T06:31:35;101756.56;;;25.53;42.25
30302;BME280;17111;52.130;5.028;2023-07-08T06:34:01;101751.97;;;25.53;42.11
30302;BME280;17111;52.130;5.028;2023-07-08T06:36:28;101750.28;;;25.52;42.45
30302;BME280;17111;52.130;5.028;2023-07-08T06:38:55;101751.13;;;25.53;42.33
30302;BME280;17111;52.130;5.028;2023-07-08T06:41:21;101757.41;;;25.53;42.24
30302;BME280;17111;52.130;5.028;2023-07-08T06:43:48;101754.69;;;25.53;42.24
30302;BME280;17111;52.130;5.028;2023-07-08T06:46:15;101756.38;;;25.54;42.39
30302;BME280;17111;52.130;5.028;2023-07-08T06:48:42;101757.41;;;25.53;42.60
30302;BME280;17111;52.130;5.028;2023-07-08T06:51:09;101748.22;;;25.54;42.55
30302;BME280;17111;52.130;5.028;2023-07-08T06:53:35;101745.53;;;25.54;42.47
30302;BME280;17111;52.130;5.028;2023-07-08T06:56:02;101743.66;;;25.55;42.40
30302;BME280;17111;52.130;5.028;2023-07-08T06:58:29;101751.78;;;25.55;42.15
30302;BME280;17111;52.130;5.028;2023-07-08T07:00:55;101743.66;;;25.55;42.45
30302;BME280;17111;52.130;5.028;2023-07-08T07:03:24;101740.09;;;25.54;41.94
30302;BME280;17111;52.130;5.028;2023-07-08T07:05:51;101750.75;;;25.56;42.33
30302;BME280;17111;52.130;5.028;2023-07-08T07:08:17;101747.19;;;25.55;42.04
30302;BME280;17111;52.130;5.028;2023-07-08T07:10:44;101745.31;;;25.56;42.24
30302;BME280;17111;52.130;5.028;2023-07-08T07:13:11;101741.78;;;25.55;42.45
30302;BME280;17111;52.130;5.028;2023-07-08T07:15:37;101738.91;;;25.57;42.04
30302;BME280;17111;52.130;5.028;2023-07-08T07:18:04;101738.03;;;25.56;41.91
30302;BME280;17111;52.130;5.028;2023-07-08T07:20:31;101737.03;;;25.57;42.07
30302;BME280;17111;52.130;5.028;2023-07-08T07:22:57;101732.59;;;25.56;42.65
30302;BME280;17111;52.130;5.028;2023-07-08T07:25:24;101731.59;;;25.57;42.08
30302;BME280;17111;52.130;5.028;2023-07-08T07:27:51;101728.69;;;25.59;42.59
30302;BME280;17111;52.130;5.028;2023-07-08T07:30:17;101726.81;;;25.59;42.30
30302;BME280;17111;52.130;5.028;2023-07-08T07:32:44;101731.41;;;25.59;42.20
30302;BME280;17111;52.130;5.028;2023-07-08T07:35:12;101729.53;;;25.59;41.99
30302;BME280;17111;52.130;5.028;2023-07-08T07:37:41;101725.78;;;25.60;41.90
30302;BME280;17111;52.130;5.028;2023-07-08T07:40:12;101722.22;;;25.60;41.80
30302;BME280;17111;52.130;5.028;2023-07-08T07:42:43;101729.34;;;25.61;41.86
30302;BME280;17111;52.130;5.028;2023-07-08T07:45:10;101732.91;;;25.62;41.53
30302;BME280;17111;52.130;5.028;2023-07-08T07:47:38;101725.78;;;25.60;41.75
30302;BME280;17111;52.130;5.028;2023-07-08T07:50:07;101724.75;;;25.62;41.83
30302;BME280;17111;52.130;5.028;2023-07-08T07:52:34;101724.56;;;25.63;42.18
30302;BME280;17111;52.130;5.028;2023-07-08T07:55:01;101722.88;;;25.62;41.96
30302;BME280;17111;52.130;5.028;2023-07-08T07:57:28;101727.28;;;25.63;41.99
30302;BME280;17111;52.130;5.028;2023-07-08T07:59:54;101727.28;;;25.63;41.76
30302;BME280;17111;52.130;5.028;2023-07-08T08:02:21;101724.38;;;25.65;41.09
30302;BME280;17111;52.130;5.028;2023-07-08T08:04:48;101724.38;;;25.65;41.82
30302;BME280;17111;52.130;5.028;2023-07-08T08:07:14;101718.78;;;25.66;41.68
30302;BME280;17111;52.130;5.028;2023-07-08T08:09:41;101710.63;;;25.66;41.15
30302;BME280;17111;52.130;5.028;2023-07-08T08:12:10;101708.75;;;25.67;41.32
30302;BME280;17111;52.130;5.028;2023-07-08T08:14:38;101709.59;;;25.67;41.01
30302;BME280;17111;52.130;5.028;2023-07-08T08:17:05;101714.84;;;25.69;41.30
30302;BME280;17111;52.130;5.028;2023-07-08T08:19:32;101720.25;;;25.69;41.38
30302;BME280;17111;52.130;5.028;2023-07-08T08:21:59;101724.69;;;25.70;41.19
30302;BME280;17111;52.130;5.028;2023-07-08T08:24:25;101729.09;;;25.71;41.29
30302;BME280;17111;52.130;5.028;2023-07-08T08:26:53;101730.78;;;25.72;41.21
30302;BME280;17111;52.130;5.028;2023-07-08T08:29:20;101735.38;;;25.71;41.35
30302;BME280;17111;52.130;5.028;2023-07-08T08:31:47;101734.31;;;25.72;41.26
30302;BME280;17111;52.130;5.028;2023-07-08T08:34:14;101733.50;;;25.72;41.16
30302;BME280;17111;52.130;5.028;2023-07-08T08:36:40;101740.59;;;25.73;41.17
30302;BME280;17111;52.130;5.028;2023-07-08T08:39:07;101735.16;;;25.73;40.96
30302;BME280;17111;52.130;5.028;2023-07-08T08:41:37;101734.16;;;25.74;41.29
30302;BME280;17111;52.130;5.028;2023-07-08T08:44:05;101735.00;;;25.74;41.29
30302;BME280;17111;52.130;5.028;2023-07-08T08:49:34;101742.94;;;25.76;41.11
30302;BME280;17111;52.130;5.028;2023-07-08T08:52:04;101744.50;;;25.78;41.02
30302;BME280;17111;52.130;5.028;2023-07-08T08:54:31;101749.56;;;25.81;40.99
30302;BME280;17111;52.130;5.028;2023-07-08T08:59:48;101746.66;;;25.83;40.76
30302;BME280;17111;52.130;5.028;2023-07-08T09:02:42;101756.50;;;25.84;40.98
30302;BME280;17111;52.130;5.028;2023-07-08T09:05:14;101745.25;;;25.87;41.17
30302;BME280;17111;52.130;5.028;2023-07-08T09:10:35;101738.44;;;25.91;40.90
30302;BME280;17111;52.130;5.028;2023-07-08T09:13:07;101731.81;;;25.94;40.83
30302;BME280;17111;52.130;5.028;2023-07-08T09:15:38;101736.19;;;25.95;40.92
30302;BME280;17111;52.130;5.028;2023-07-08T09:18:19;101733.13;;;25.98;40.76
30302;BME280;17111;52.130;5.028;2023-07-08T09:20:47;101725.63;;;26.00;40.76
30302;BME280;17111;52.130;5.028;2023-07-08T09:23:39;101734.44;;;26.02;40.74
30302;BME280;17111;52.130;5.028;2023-07-08T09:26:13;101728.81;;;26.03;40.70
30302;BME280;17111;52.130;5.028;2023-07-08T09:28:44;101731.16;;;26.06;40.80
30302;BME280;17111;52.130;5.028;2023-07-08T09:31:31;101732.84;;;26.07;41.01
30302;BME280;17111;52.130;5.028;2023-07-08T09:36:51;101735.09;;;26.19;40.91
30302;BME280;17111;52.130;5.028;2023-07-08T09:39:20;101731.81;;;26.23;41.09
30302;BME280;17111;52.130;5.028;2023-07-08T09:41:48;101733.97;;;26.28;41.08
30302;BME280;17111;52.130;5.028;2023-07-08T09:44:27;101733.41;;;26.32;41.07
30302;BME280;17111;52.130;5.028;2023-07-08T09:46:57;101737.28;;;26.38;41.00
30302;BME280;17111;52.130;5.028;2023-07-08T09:49:33;101735.88;;;26.42;40.96
30302;BME280;17111;52.130;5.028;2023-07-08T09:52:02;101728.22;;;26.46;41.00
30302;BME280;17111;52.130;5.028;2023-07-08T09:54:30;101734.97;;;26.50;41.03
30302;BME280;17111;52.130;5.028;2023-07-08T09:57:11;101742.72;;;26.53;41.13
30302;BME280;17111;52.130;5.028;2023-07-08T09:59:43;101748.63;;;26.56;40.84
30302;BME280;17111;52.130;5.028;2023-07-08T10:05:24;101747.69;;;26.64;41.13
30302;BME280;17111;52.130;5.028;2023-07-08T10:07:55;101735.41;;;26.68;40.68
30302;BME280;17111;52.130;5.028;2023-07-08T10:10:28;101733.97;;;26.72;40.58
30302;BME280;17111;52.130;5.028;2023-07-08T10:13:00;101736.13;;;26.77;40.70
30302;BME280;17111;52.130;5.028;2023-07-08T10:15:33;101732.66;;;26.83;40.24
30302;BME280;17111;52.130;5.028;2023-07-08T10:18:00;101729.38;;;26.88;40.57
30302;BME280;17111;52.130;5.028;2023-07-08T10:21:34;101727.09;;;26.91;40.44
30302;BME280;17111;52.130;5.028;2023-07-08T10:23:51;101730.47;;;26.93;40.12
30302;BME280;17111;52.130;5.028;2023-07-08T10:26:31;101731.59;;;26.99;40.33
30302;BME280;17111;52.130;5.028;2023-07-08T10:30:17;101728.66;;;27.00;40.43
30302;BME280;17111;52.130;5.028;2023-07-08T10:32:24;101739.63;;;27.07;40.25
30302;BME280;17111;52.130;5.028;2023-07-08T10:40:02;101727.44;;;27.18;39.60
30302;BME280;17111;52.130;5.028;2023-07-08T10:50:52;101721.66;;;27.27;39.13
30302;BME280;17111;52.130;5.028;2023-07-08T10:55:59;101716.47;;;27.33;39.89
30302;BME280;17111;52.130;5.028;2023-07-08T10:59:10;101721.53;;;27.36;39.94
30302;BME280;17111;52.130;5.028;2023-07-08T11:07:32;101712.03;;;27.46;39.85
30302;BME280;17111;52.130;5.028;2023-07-08T11:10:13;101716.22;;;27.49;39.82
30302;BME280;17111;52.130;5.028;2023-07-08T11:12:56;101712.91;;;27.53;40.05
30302;BME280;17111;52.130;5.028;2023-07-08T11:15:32;101716.28;;;27.55;40.12
30302;BME280;17111;52.130;5.028;2023-07-08T11:18:19;101724.25;;;27.57;39.80
30302;BME280;17111;52.130;5.028;2023-07-08T11:21:29;101720.09;;;27.61;40.53
30302;BME280;17111;52.130;5.028;2023-07-08T11:24:02;101712.38;;;27.65;40.05
30302;BME280;17111;52.130;5.028;2023-07-08T11:26:42;101712.00;;;27.68;40.17
30302;BME280;17111;52.130;5.028;2023-07-08T11:29:20;101714.94;;;27.73;39.73
30302;BME280;17111;52.130;5.028;2023-07-08T11:31:49;101713.75;;;27.75;39.68
30302;BME280;17111;52.130;5.028;2023-07-08T11:34:18;101719.66;;;27.79;40.14
30302;BME280;17111;52.130;5.028;2023-07-08T11:36:46;101714.66;;;27.83;39.47
30302;BME280;17111;52.130;5.028;2023-07-08T11:39:43;101705.66;;;27.82;40.22
30302;BME280;17111;52.130;5.028;2023-07-08T11:44:59;101709.25;;;27.89;39.55
30302;BME280;17111;52.130;5.028;2023-07-08T11:47:39;101709.69;;;27.93;39.26
30302;BME280;17111;52.130;5.028;2023-07-08T11:50:20;101712.88;;;27.96;39.09
30302;BME280;17111;52.130;5.028;2023-07-08T11:53:36;101709.91;;;27.98;39.32
30302;BME280;17111;52.130;5.028;2023-07-08T11:56:04;101707.25;;;28.04;39.06
30302;BME280;17111;52.130;5.028;2023-07-08T11:58:49;101699.72;;;28.07;39.22
30302;BME280;17111;52.130;5.028;2023-07-08T12:01:23;101702.25;;;28.08;38.60
30302;BME280;17111;52.130;5.028;2023-07-08T12:03:55;101706.47;;;28.11;38.76
30302;BME280;17111;52.130;5.028;2023-07-08T12:09:00;101688.84;;;28.13;38.57
30302;BME280;17111;52.130;5.028;2023-07-08T12:11:44;101693.06;;;28.16;38.73
30302;BME280;17111;52.130;5.028;2023-07-08T12:14:11;101699.38;;;28.16;38.49
30302;BME280;17111;52.130;5.028;2023-07-08T12:16:38;101697.28;;;28.18;37.94
30302;BME280;17111;52.130;5.028;2023-07-08T12:19:06;101692.69;;;28.19;38.04
30302;BME280;17111;52.130;5.028;2023-07-08T12:21:36;101696.25;;;28.19;38.30
30302;BME280;17111;52.130;5.028;2023-07-08T12:24:04;101687.00;;;28.20;38.36
30302;BME280;17111;52.130;5.028;2023-07-08T12:26:32;101689.53;;;28.22;38.36
30302;BME280;17111;52.130;5.028;2023-07-08T12:28:59;101683.06;;;28.23;38.50
30302;BME280;17111;52.130;5.028;2023-07-08T12:31:26;101685.56;;;28.24;38.01
30302;BME280;17111;52.130;5.028;2023-07-08T12:33:54;101678.22;;;28.25;38.21
30302;BME280;17111;52.130;5.028;2023-07-08T12:36:23;101670.88;;;28.25;38.32
30302;BME280;17111;52.130;5.028;2023-07-08T12:38:55;101671.72;;;28.26;38.06
30302;BME280;17111;52.130;5.028;2023-07-08T12:41:25;101666.28;;;28.26;38.48
30302;BME280;17111;52.130;5.028;2023-07-08T12:43:54;101671.53;;;28.27;37.84
30302;BME280;17111;52.130;5.028;2023-07-08T12:46:22;101667.97;;;28.27;37.98
30302;BME280;17111;52.130;5.028;2023-07-08T12:48:50;101667.13;;;28.26;38.47
30302;BME280;17111;52.130;5.028;2023-07-08T12:51:19;101670.69;;;28.27;38.53
30302;BME280;17111;52.130;5.028;2023-07-08T12:53:50;101676.16;;;28.27;38.62
30302;BME280;17111;52.130;5.028;2023-07-08T12:56:18;101671.72;;;28.26;38.53
30302;BME280;17111;52.130;5.028;2023-07-08T12:58:51;101669.88;;;28.26;38.23
30302;BME280;17111;52.130;5.028;2023-07-08T13:01:25;101673.44;;;28.27;37.76
30302;BME280;17111;52.130;5.028;2023-07-08T13:03:56;101659.81;;;28.27;37.74
30302;BME280;17111;52.130;5.028;2023-07-08T13:06:28;101663.38;;;28.27;38.02
30302;BME280;17111;52.130;5.028;2023-07-08T13:09:11;101667.13;;;28.26;38.50
30302;BME280;17111;52.130;5.028;2023-07-08T13:11:42;101665.25;;;28.27;38.24
30302;BME280;17111;52.130;5.028;2023-07-08T13:14:09;101663.38;;;28.27;38.24
30302;BME280;17111;52.130;5.028;2023-07-08T13:16:36;101665.25;;;28.27;38.01
30302;BME280;17111;52.130;5.028;2023-07-08T13:19:03;101663.38;;;28.27;38.33
30302;BME280;17111;52.130;5.028;2023-07-08T13:21:31;101665.03;;;28.28;38.14
30302;BME280;17111;52.130;5.028;2023-07-08T13:23:59;101665.88;;;28.29;38.71
30302;BME280;17111;52.130;5.028;2023-07-08T13:26:28;101664.19;;;28.28;37.83
30302;BME280;17111;52.130;5.028;2023-07-08T13:29:04;101671.31;;;28.29;38.41
30302;BME280;17111;52.130;5.028;2023-07-08T13:31:34;101671.31;;;28.29;37.78
30302;BME280;17111;52.130;5.028;2023-07-08T13:34:15;101666.72;;;28.29;37.52
30302;BME280;17111;52.130;5.028;2023-07-08T13:36:44;101667.38;;;28.32;38.25
30302;BME280;17111;52.130;5.028;2023-07-08T13:39:19;101674.72;;;28.31;37.63
30302;BME280;17111;52.130;5.028;2023-07-08T13:41:47;101668.00;;;28.34;37.95
30302;BME280;17111;52.130;5.028;2023-07-08T13:44:14;101668.81;;;28.34;37.38
30302;BME280;17111;52.130;5.028;2023-07-08T13:49:26;101657.91;;;28.34;37.51
30302;BME280;17111;52.130;5.028;2023-07-08T13:52:14;101657.09;;;28.34;37.49
30302;BME280;17111;52.130;5.028;2023-07-08T13:54:48;101650.44;;;28.36;37.81